sensor_id;sensor_type;location;lat;lon;timestamp;P1;durP1;ratioP1;P2;durP2;ratioP2
40863;SDS011;26582;47.524;19.012;2024-01-27T00:00:13;6.85;;;4.28;;
40863;SDS011;26582;47.524;19.012;2024-01-27T00:02:40;9.27;;;4.55;;
40863;SDS011;26582;47.524;19.012;2024-01-27T00:05:08;5.53;;;3.85;;
40863;SDS011;26582;47.524;19.012;2024-01-27T00:07:36;6.43;;;3.63;;
40863;SDS011;26582;47.524;19.012;2024-01-27T00:10:02;6.88;;;4.07;;
40863;SDS011;26582;47.524;19.012;2024-01-27T00:12:30;5.75;;;3.58;;
40863;SDS011;26582;47.524;19.012;2024-01-27T00:14:56;6.10;;;3.17;;
40863;SDS011;26582;47.524;19.012;2024-01-27T00:17:23;9.82;;;4.18;;
40863;SDS011;26582;47.524;19.012;2024-01-27T00:19:51;4.88;;;3.38;;
40863;SDS011;26582;47.524;19.012;2024-01-27T00:22:18;5.53;;;3.20;;
40863;SDS011;26582;47.524;19.012;2024-01-27T00:24:47;6.35;;;3.70;;
40863;SDS011;26582;47.524;19.012;2024-01-27T00:27:14;8.13;;;3.67;;
40863;SDS011;26582;47.524;19.012;2024-01-27T00:29:41;5.53;;;3.17;;
40863;SDS011;26582;47.524;19.012;2024-01-27T00:32:08;5.18;;;3.22;;
40863;SDS011;26582;47.524;19.012;2024-01-27T00:34:34;5.38;;;2.83;;
40863;SDS011;26582;47.524;19.012;2024-01-27T00:37:01;2.95;;;2.25;;
40863;SDS011;26582;47.524;19.012;2024-01-27T00:39:28;4.78;;;2.85;;
40863;SDS011;26582;47.524;19.012;2024-01-27T00:41:56;5.32;;;2.25;;
40863;SDS011;26582;47.524;19.012;2024-01-27T00:44:23;4.22;;;2.38;;
40863;SDS011;26582;47.524;19.012;2024-01-27T00:46:50;3.20;;;1.80;;
40863;SDS011;26582;47.524;19.012;2024-01-27T00:49:16;3.72;;;1.90;;
40863;SDS011;26582;47.524;19.012;2024-01-27T00:51:43;3.00;;;1.90;;
40863;SDS011;26582;47.524;19.012;2024-01-27T00:54:10;3.53;;;1.75;;
40863;SDS011;26582;47.524;19.012;2024-01-27T00:56:36;3.33;;;1.80;;
40863;SDS011;26582;47.524;19.012;2024-01-27T00:59:05;3.58;;;1.67;;
40863;SDS011;26582;47.524;19.012;2024-01-27T01:01:31;2.03;;;1.45;;
40863;SDS011;26582;47.524;19.012;2024-01-27T01:03:58;5.00;;;1.80;;
40863;SDS011;26582;47.524;19.012;2024-01-27T01:06:24;4.05;;;1.70;;
40863;SDS011;26582;47.524;19.012;2024-01-27T01:08:51;4.18;;;1.90;;
40863;SDS011;26582;47.524;19.012;2024-01-27T01:11:18;2.47;;;1.90;;
40863;SDS011;26582;47.524;19.012;2024-01-27T01:13:44;1.77;;;1.35;;
40863;SDS011;26582;47.524;19.012;2024-01-27T01:16:12;4.10;;;2.08;;
40863;SDS011;26582;47.524;19.012;2024-01-27T01:18:39;2.65;;;1.90;;
40863;SDS011;26582;47.524;19.012;2024-01-27T01:21:06;4.00;;;1.73;;
40863;SDS011;26582;47.524;19.012;2024-01-27T01:23:32;2.50;;;1.63;;
40863;SDS011;26582;47.524;19.012;2024-01-27T01:25:59;2.45;;;1.52;;
40863;SDS011;26582;47.524;19.012;2024-01-27T01:28:26;5.18;;;1.92;;
40863;SDS011;26582;47.524;19.012;2024-01-27T01:30:53;3.83;;;2.00;;
40863;SDS011;26582;47.524;19.012;2024-01-27T01:33:22;4.05;;;1.92;;
40863;SDS011;26582;47.524;19.012;2024-01-27T01:35:49;3.38;;;2.00;;
40863;SDS011;26582;47.524;19.012;2024-01-27T01:38:15;3.30;;;1.95;;
40863;SDS011;26582;47.524;19.012;2024-01-27T01:40:42;2.83;;;1.80;;
40863;SDS011;26582;47.524;19.012;2024-01-27T01:43:09;2.20;;;1.70;;
40863;SDS011;26582;47.524;19.012;2024-01-27T01:45:37;2.80;;;2.05;;
40863;SDS011;26582;47.524;19.012;2024-01-27T01:48:04;2.58;;;1.88;;
40863;SDS011;26582;47.524;19.012;2024-01-27T01:50:33;3.17;;;1.90;;
40863;SDS011;26582;47.524;19.012;2024-01-27T01:53:00;3.83;;;1.70;;
40863;SDS011;26582;47.524;19.012;2024-01-27T01:55:27;2.92;;;1.90;;
40863;SDS011;26582;47.524;19.012;2024-01-27T01:57:54;5.22;;;1.98;;
40863;SDS011;26582;47.524;19.012;2024-01-27T02:00:20;3.72;;;1.90;;
40863;SDS011;26582;47.524;19.012;2024-01-27T02:02:47;4.63;;;1.88;;
40863;SDS011;26582;47.524;19.012;2024-01-27T02:05:14;2.65;;;1.60;;
40863;SDS011;26582;47.524;19.012;2024-01-27T02:07:42;1.80;;;1.33;;
40863;SDS011;26582;47.524;19.012;2024-01-27T02:10:12;3.00;;;1.88;;
40863;SDS011;26582;47.524;19.012;2024-01-27T02:12:40;2.10;;;1.60;;
40863;SDS011;26582;47.524;19.012;2024-01-27T02:15:09;3.50;;;1.60;;
40863;SDS011;26582;47.524;19.012;2024-01-27T02:17:37;1.30;;;1.20;;
40863;SDS011;26582;47.524;19.012;2024-01-27T02:20:04;2.35;;;1.50;;
40863;SDS011;26582;47.524;19.012;2024-01-27T02:22:31;2.28;;;1.55;;
40863;SDS011;26582;47.524;19.012;2024-01-27T02:24:59;2.33;;;1.38;;
40863;SDS011;26582;47.524;19.012;2024-01-27T02:27:26;1.98;;;1.58;;
40863;SDS011;26582;47.524;19.012;2024-01-27T02:29:53;1.77;;;1.50;;
40863;SDS011;26582;47.524;19.012;2024-01-27T02:32:20;1.77;;;1.30;;
40863;SDS011;26582;47.524;19.012;2024-01-27T02:34:46;3.60;;;1.50;;
40863;SDS011;26582;47.524;19.012;2024-01-27T02:37:13;3.35;;;1.50;;
40863;SDS011;26582;47.524;19.012;2024-01-27T02:39:40;3.40;;;1.70;;
40863;SDS011;26582;47.524;19.012;2024-01-27T02:42:08;2.22;;;1.20;;
40863;SDS011;26582;47.524;19.012;2024-01-27T02:44:35;2.60;;;1.50;;
40863;SDS011;26582;47.524;19.012;2024-01-27T02:47:02;1.52;;;1.30;;
40863;SDS011;26582;47.524;19.012;2024-01-27T02:49:29;1.60;;;1.38;;
40863;SDS011;26582;47.524;19.012;2024-01-27T02:51:55;2.65;;;1.38;;
40863;SDS011;26582;47.524;19.012;2024-01-27T02:54:22;2.15;;;1.33;;
40863;SDS011;26582;47.524;19.012;2024-01-27T02:56:48;2.17;;;1.45;;
40863;SDS011;26582;47.524;19.012;2024-01-27T02:59:16;2.08;;;1.20;;
40863;SDS011;26582;47.524;19.012;2024-01-27T03:01:43;1.38;;;1.20;;
40863;SDS011;26582;47.524;19.012;2024-01-27T03:04:10;2.75;;;1.40;;
40863;SDS011;26582;47.524;19.012;2024-01-27T03:06:37;4.28;;;1.50;;
40863;SDS011;26582;47.524;19.012;2024-01-27T03:09:03;2.38;;;1.27;;
40863;SDS011;26582;47.524;19.012;2024-01-27T03:11:30;3.83;;;1.50;;
40863;SDS011;26582;47.524;19.012;2024-01-27T03:13:57;3.92;;;1.30;;
40863;SDS011;26582;47.524;19.012;2024-01-27T03:16:25;3.53;;;1.45;;
40863;SDS011;26582;47.524;19.012;2024-01-27T03:18:52;1.65;;;1.27;;
40863;SDS011;26582;47.524;19.012;2024-01-27T03:21:18;2.38;;;1.33;;
40863;SDS011;26582;47.524;19.012;2024-01-27T03:23:45;4.30;;;1.27;;
40863;SDS011;26582;47.524;19.012;2024-01-27T03:26:12;3.17;;;1.30;;
40863;SDS011;26582;47.524;19.012;2024-01-27T03:28:38;1.30;;;1.20;;
40863;SDS011;26582;47.524;19.012;2024-01-27T03:31:06;1.42;;;1.30;;
40863;SDS011;26582;47.524;19.012;2024-01-27T03:33:34;2.03;;;1.20;;
40863;SDS011;26582;47.524;19.012;2024-01-27T03:36:00;2.58;;;1.23;;
40863;SDS011;26582;47.524;19.012;2024-01-27T03:38:28;4.28;;;1.52;;
40863;SDS011;26582;47.524;19.012;2024-01-27T03:40:54;1.88;;;1.40;;
40863;SDS011;26582;47.524;19.012;2024-01-27T03:43:21;1.67;;;1.30;;
40863;SDS011;26582;47.524;19.012;2024-01-27T03:45:48;1.52;;;1.23;;
40863;SDS011;26582;47.524;19.012;2024-01-27T03:48:14;2.40;;;1.25;;
40863;SDS011;26582;47.524;19.012;2024-01-27T03:50:42;3.03;;;1.20;;
40863;SDS011;26582;47.524;19.012;2024-01-27T03:53:09;2.08;;;1.30;;
40863;SDS011;26582;47.524;19.012;2024-01-27T03:55:36;2.35;;;1.13;;
40863;SDS011;26582;47.524;19.012;2024-01-27T03:58:03;2.75;;;1.45;;
40863;SDS011;26582;47.524;19.012;2024-01-27T04:00:30;1.77;;;1.30;;
40863;SDS011;26582;47.524;19.012;2024-01-27T04:02:58;2.13;;;1.10;;
40863;SDS011;26582;47.524;19.012;2024-01-27T04:05:25;3.28;;;1.35;;
40863;SDS011;26582;47.524;19.012;2024-01-27T04:07:53;2.17;;;1.50;;
40863;SDS011;26582;47.524;19.012;2024-01-27T04:10:20;2.75;;;1.45;;
40863;SDS011;26582;47.524;19.012;2024-01-27T04:12:47;2.00;;;1.50;;
40863;SDS011;26582;47.524;19.012;2024-01-27T04:15:14;3.38;;;1.45;;
40863;SDS011;26582;47.524;19.012;2024-01-27T04:17:41;2.08;;;1.80;;
40863;SDS011;26582;47.524;19.012;2024-01-27T04:20:08;3.72;;;1.63;;
40863;SDS011;26582;47.524;19.012;2024-01-27T04:22:36;1.40;;;1.30;;
40863;SDS011;26582;47.524;19.012;2024-01-27T04:25:04;2.25;;;1.67;;
40863;SDS011;26582;47.524;19.012;2024-01-27T04:27:36;1.50;;;1.40;;
40863;SDS011;26582;47.524;19.012;2024-01-27T04:30:04;1.85;;;1.30;;
40863;SDS011;26582;47.524;19.012;2024-01-27T04:32:32;4.15;;;1.70;;
40863;SDS011;26582;47.524;19.012;2024-01-27T04:34:58;1.58;;;1.25;;
40863;SDS011;26582;47.524;19.012;2024-01-27T04:37:25;2.30;;;1.88;;
40863;SDS011;26582;47.524;19.012;2024-01-27T04:39:52;3.10;;;1.50;;
40863;SDS011;26582;47.524;19.012;2024-01-27T04:42:20;2.97;;;1.67;;
40863;SDS011;26582;47.524;19.012;2024-01-27T04:44:46;3.88;;;1.80;;
40863;SDS011;26582;47.524;19.012;2024-01-27T04:47:13;1.58;;;1.20;;
40863;SDS011;26582;47.524;19.012;2024-01-27T04:49:40;4.63;;;1.80;;
40863;SDS011;26582;47.524;19.012;2024-01-27T04:52:06;4.00;;;1.63;;
40863;SDS011;26582;47.524;19.012;2024-01-27T04:54:33;4.47;;;1.70;;
40863;SDS011;26582;47.524;19.012;2024-01-27T04:57:00;2.83;;;1.50;;
40863;SDS011;26582;47.524;19.012;2024-01-27T04:59:28;3.05;;;1.35;;
40863;SDS011;26582;47.524;19.012;2024-01-27T05:01:54;2.42;;;1.35;;
40863;SDS011;26582;47.524;19.012;2024-01-27T05:04:21;1.30;;;1.20;;
40863;SDS011;26582;47.524;19.012;2024-01-27T05:06:51;4.15;;;1.70;;
40863;SDS011;26582;47.524;19.012;2024-01-27T05:09:18;2.00;;;1.30;;
40863;SDS011;26582;47.524;19.012;2024-01-27T05:11:45;4.20;;;1.40;;
40863;SDS011;26582;47.524;19.012;2024-01-27T05:14:13;1.90;;;1.30;;
40863;SDS011;26582;47.524;19.012;2024-01-27T05:16:41;4.97;;;2.03;;
40863;SDS011;26582;47.524;19.012;2024-01-27T05:19:08;2.05;;;1.65;;
40863;SDS011;26582;47.524;19.012;2024-01-27T05:21:34;4.10;;;1.55;;
40863;SDS011;26582;47.524;19.012;2024-01-27T05:24:01;4.50;;;1.20;;
40863;SDS011;26582;47.524;19.012;2024-01-27T05:26:28;3.05;;;1.88;;
40863;SDS011;26582;47.524;19.012;2024-01-27T05:28:55;2.90;;;1.60;;
40863;SDS011;26582;47.524;19.012;2024-01-27T05:31:21;4.80;;;1.55;;
40863;SDS011;26582;47.524;19.012;2024-01-27T05:33:50;3.35;;;1.00;;
40863;SDS011;26582;47.524;19.012;2024-01-27T05:36:16;2.47;;;1.30;;
40863;SDS011;26582;47.524;19.012;2024-01-27T05:38:43;3.53;;;1.50;;
40863;SDS011;26582;47.524;19.012;2024-01-27T05:41:10;1.77;;;1.33;;
40863;SDS011;26582;47.524;19.012;2024-01-27T05:43:36;5.95;;;1.60;;
40863;SDS011;26582;47.524;19.012;2024-01-27T05:46:03;4.00;;;1.40;;
40863;SDS011;26582;47.524;19.012;2024-01-27T05:48:30;2.13;;;1.40;;
40863;SDS011;26582;47.524;19.012;2024-01-27T05:51:00;1.38;;;1.20;;
40863;SDS011;26582;47.524;19.012;2024-01-27T05:53:27;2.60;;;1.33;;
40863;SDS011;26582;47.524;19.012;2024-01-27T05:55:55;2.17;;;1.55;;
40863;SDS011;26582;47.524;19.012;2024-01-27T05:58:22;3.47;;;1.50;;
40863;SDS011;26582;47.524;19.012;2024-01-27T06:00:49;4.85;;;1.60;;
40863;SDS011;26582;47.524;19.012;2024-01-27T06:03:16;1.95;;;1.20;;
40863;SDS011;26582;47.524;19.012;2024-01-27T06:05:42;2.42;;;1.23;;
40863;SDS011;26582;47.524;19.012;2024-01-27T06:08:11;4.40;;;1.45;;
40863;SDS011;26582;47.524;19.012;2024-01-27T06:10:37;4.47;;;1.60;;
40863;SDS011;26582;47.524;19.012;2024-01-27T06:13:04;4.18;;;1.70;;
40863;SDS011;26582;47.524;19.012;2024-01-27T06:15:31;5.15;;;1.90;;
40863;SDS011;26582;47.524;19.012;2024-01-27T06:17:58;5.80;;;1.50;;
40863;SDS011;26582;47.524;19.012;2024-01-27T06:20:25;2.45;;;1.42;;
40863;SDS011;26582;47.524;19.012;2024-01-27T06:22:52;5.30;;;1.65;;
40863;SDS011;26582;47.524;19.012;2024-01-27T06:25:20;3.42;;;1.30;;
40863;SDS011;26582;47.524;19.012;2024-01-27T06:27:47;3.22;;;1.58;;
40863;SDS011;26582;47.524;19.012;2024-01-27T06:30:14;8.57;;;1.80;;
40863;SDS011;26582;47.524;19.012;2024-01-27T06:32:42;3.03;;;1.60;;
40863;SDS011;26582;47.524;19.012;2024-01-27T06:35:08;2.40;;;1.27;;
40863;SDS011;26582;47.524;19.012;2024-01-27T06:37:35;3.67;;;2.05;;
40863;SDS011;26582;47.524;19.012;2024-01-27T06:40:02;1.95;;;1.50;;
40863;SDS011;26582;47.524;19.012;2024-01-27T06:42:31;1.83;;;1.45;;
40863;SDS011;26582;47.524;19.012;2024-01-27T06:44:57;7.78;;;2.22;;
40863;SDS011;26582;47.524;19.012;2024-01-27T06:47:24;5.93;;;1.98;;
40863;SDS011;26582;47.524;19.012;2024-01-27T06:49:51;6.70;;;1.80;;
40863;SDS011;26582;47.524;19.012;2024-01-27T06:52:18;7.95;;;1.90;;
40863;SDS011;26582;47.524;19.012;2024-01-27T06:54:44;5.32;;;1.50;;
40863;SDS011;26582;47.524;19.012;2024-01-27T06:57:17;4.10;;;1.52;;
40863;SDS011;26582;47.524;19.012;2024-01-27T06:59:46;4.60;;;1.63;;
40863;SDS011;26582;47.524;19.012;2024-01-27T07:02:17;2.13;;;1.52;;
40863;SDS011;26582;47.524;19.012;2024-01-27T07:04:44;7.47;;;1.88;;
40863;SDS011;26582;47.524;19.012;2024-01-27T07:07:11;2.92;;;1.73;;
40863;SDS011;26582;47.524;19.012;2024-01-27T07:09:38;3.03;;;1.45;;
40863;SDS011;26582;47.524;19.012;2024-01-27T07:12:05;3.10;;;1.70;;
40863;SDS011;26582;47.524;19.012;2024-01-27T07:14:32;2.38;;;1.58;;
40863;SDS011;26582;47.524;19.012;2024-01-27T07:17:00;5.07;;;1.67;;
40863;SDS011;26582;47.524;19.012;2024-01-27T07:19:27;2.40;;;1.42;;
40863;SDS011;26582;47.524;19.012;2024-01-27T07:21:53;4.40;;;1.40;;
40863;SDS011;26582;47.524;19.012;2024-01-27T07:24:20;3.40;;;1.50;;
40863;SDS011;26582;47.524;19.012;2024-01-27T07:26:47;7.20;;;1.52;;
40863;SDS011;26582;47.524;19.012;2024-01-27T07:29:13;1.98;;;1.30;;
40863;SDS011;26582;47.524;19.012;2024-01-27T07:31:40;4.03;;;1.88;;
40863;SDS011;26582;47.524;19.012;2024-01-27T07:34:08;2.55;;;1.58;;
40863;SDS011;26582;47.524;19.012;2024-01-27T07:36:35;3.90;;;1.70;;
40863;SDS011;26582;47.524;19.012;2024-01-27T07:39:02;3.75;;;1.40;;
40863;SDS011;26582;47.524;19.012;2024-01-27T07:41:30;3.78;;;1.38;;
40863;SDS011;26582;47.524;19.012;2024-01-27T07:43:57;2.70;;;1.50;;
40863;SDS011;26582;47.524;19.012;2024-01-27T07:46:23;3.75;;;1.85;;
40863;SDS011;26582;47.524;19.012;2024-01-27T07:48:50;3.28;;;1.50;;
40863;SDS011;26582;47.524;19.012;2024-01-27T07:51:19;2.60;;;1.60;;
40863;SDS011;26582;47.524;19.012;2024-01-27T07:53:46;4.10;;;1.80;;
40863;SDS011;26582;47.524;19.012;2024-01-27T07:56:12;3.15;;;1.60;;
40863;SDS011;26582;47.524;19.012;2024-01-27T07:58:39;2.72;;;1.55;;
40863;SDS011;26582;47.524;19.012;2024-01-27T08:01:06;2.85;;;1.40;;
40863;SDS011;26582;47.524;19.012;2024-01-27T08:03:32;3.42;;;1.65;;
40863;SDS011;26582;47.524;19.012;2024-01-27T08:05:59;3.75;;;1.52;;
40863;SDS011;26582;47.524;19.012;2024-01-27T08:08:31;2.80;;;1.38;;
40863;SDS011;26582;47.524;19.012;2024-01-27T08:10:58;4.22;;;1.60;;
40863;SDS011;26582;47.524;19.012;2024-01-27T08:13:24;1.92;;;1.25;;
40863;SDS011;26582;47.524;19.012;2024-01-27T08:15:51;6.13;;;1.83;;
40863;SDS011;26582;47.524;19.012;2024-01-27T08:18:18;7.90;;;1.75;;
40863;SDS011;26582;47.524;19.012;2024-01-27T08:20:44;3.00;;;1.35;;
40863;SDS011;26582;47.524;19.012;2024-01-27T08:23:11;4.82;;;1.85;;
40863;SDS011;26582;47.524;19.012;2024-01-27T08:25:39;2.60;;;1.30;;
40863;SDS011;26582;47.524;19.012;2024-01-27T08:28:06;4.70;;;1.38;;
40863;SDS011;26582;47.524;19.012;2024-01-27T08:30:34;2.60;;;1.35;;
40863;SDS011;26582;47.524;19.012;2024-01-27T08:33:03;6.18;;;1.52;;
40863;SDS011;26582;47.524;19.012;2024-01-27T08:35:30;3.38;;;1.98;;
40863;SDS011;26582;47.524;19.012;2024-01-27T08:37:57;1.60;;;1.20;;
40863;SDS011;26582;47.524;19.012;2024-01-27T08:40:24;4.32;;;1.50;;
40863;SDS011;26582;47.524;19.012;2024-01-27T08:42:52;1.95;;;1.33;;
40863;SDS011;26582;47.524;19.012;2024-01-27T08:45:19;3.08;;;1.77;;
40863;SDS011;26582;47.524;19.012;2024-01-27T08:47:45;2.75;;;1.50;;
40863;SDS011;26582;47.524;19.012;2024-01-27T08:50:12;2.97;;;1.35;;
40863;SDS011;26582;47.524;19.012;2024-01-27T08:52:39;2.28;;;1.40;;
40863;SDS011;26582;47.524;19.012;2024-01-27T08:55:06;1.48;;;1.15;;
40863;SDS011;26582;47.524;19.012;2024-01-27T08:57:33;1.48;;;1.35;;
40863;SDS011;26582;47.524;19.012;2024-01-27T09:00:01;3.13;;;1.50;;
40863;SDS011;26582;47.524;19.012;2024-01-27T09:02:29;3.28;;;1.58;;
40863;SDS011;26582;47.524;19.012;2024-01-27T09:04:56;2.10;;;1.17;;
40863;SDS011;26582;47.524;19.012;2024-01-27T09:07:23;2.58;;;1.48;;
40863;SDS011;26582;47.524;19.012;2024-01-27T09:09:50;3.55;;;1.52;;
40863;SDS011;26582;47.524;19.012;2024-01-27T09:12:17;3.47;;;1.27;;
40863;SDS011;26582;47.524;19.012;2024-01-27T09:14:43;2.83;;;1.33;;
40863;SDS011;26582;47.524;19.012;2024-01-27T09:17:11;3.40;;;1.50;;
40863;SDS011;26582;47.524;19.012;2024-01-27T09:19:38;3.70;;;1.55;;
40863;SDS011;26582;47.524;19.012;2024-01-27T09:22:05;2.40;;;1.27;;
40863;SDS011;26582;47.524;19.012;2024-01-27T09:24:32;3.03;;;1.40;;
40863;SDS011;26582;47.524;19.012;2024-01-27T09:26:58;5.60;;;2.05;;
40863;SDS011;26582;47.524;19.012;2024-01-27T09:29:25;2.40;;;1.40;;
40863;SDS011;26582;47.524;19.012;2024-01-27T09:31:52;2.92;;;1.60;;
40863;SDS011;26582;47.524;19.012;2024-01-27T09:34:20;2.83;;;1.65;;
40863;SDS011;26582;47.524;19.012;2024-01-27T09:36:46;4.70;;;1.40;;
40863;SDS011;26582;47.524;19.012;2024-01-27T09:39:13;4.78;;;1.38;;
40863;SDS011;26582;47.524;19.012;2024-01-27T09:41:40;1.75;;;1.38;;
40863;SDS011;26582;47.524;19.012;2024-01-27T09:44:07;2.88;;;1.60;;
40863;SDS011;26582;47.524;19.012;2024-01-27T09:46:33;2.25;;;1.40;;
40863;SDS011;26582;47.524;19.012;2024-01-27T09:49:00;2.63;;;1.40;;
40863;SDS011;26582;47.524;19.012;2024-01-27T09:51:30;4.65;;;1.42;;
40863;SDS011;26582;47.524;19.012;2024-01-27T09:53:57;4.38;;;1.48;;
40863;SDS011;26582;47.524;19.012;2024-01-27T09:56:24;3.33;;;1.85;;
40863;SDS011;26582;47.524;19.012;2024-01-27T09:58:51;2.08;;;1.40;;
40863;SDS011;26582;47.524;19.012;2024-01-27T10:01:20;2.35;;;1.40;;
40863;SDS011;26582;47.524;19.012;2024-01-27T10:03:50;5.95;;;1.70;;
40863;SDS011;26582;47.524;19.012;2024-01-27T10:06:17;5.88;;;1.90;;
40863;SDS011;26582;47.524;19.012;2024-01-27T10:08:51;7.65;;;2.03;;
40863;SDS011;26582;47.524;19.012;2024-01-27T10:11:20;6.57;;;2.17;;
40863;SDS011;26582;47.524;19.012;2024-01-27T10:13:53;4.38;;;1.80;;
40863;SDS011;26582;47.524;19.012;2024-01-27T10:16:19;5.75;;;1.77;;
40863;SDS011;26582;47.524;19.012;2024-01-27T10:18:46;4.72;;;1.63;;
40863;SDS011;26582;47.524;19.012;2024-01-27T10:21:13;5.30;;;1.67;;
40863;SDS011;26582;47.524;19.012;2024-01-27T10:23:40;2.78;;;1.60;;
40863;SDS011;26582;47.524;19.012;2024-01-27T10:26:09;2.90;;;1.30;;
40863;SDS011;26582;47.524;19.012;2024-01-27T10:31:07;4.97;;;1.40;;
40863;SDS011;26582;47.524;19.012;2024-01-27T10:33:34;3.13;;;1.80;;
40863;SDS011;26582;47.524;19.012;2024-01-27T10:36:01;2.50;;;1.48;;
40863;SDS011;26582;47.524;19.012;2024-01-27T10:38:35;5.28;;;1.55;;
40863;SDS011;26582;47.524;19.012;2024-01-27T10:41:02;2.95;;;1.58;;
40863;SDS011;26582;47.524;19.012;2024-01-27T10:43:36;5.57;;;1.70;;
40863;SDS011;26582;47.524;19.012;2024-01-27T10:46:05;6.13;;;1.77;;
40863;SDS011;26582;47.524;19.012;2024-01-27T10:48:32;2.17;;;1.20;;
40863;SDS011;26582;47.524;19.012;2024-01-27T10:51:02;5.57;;;1.52;;
40863;SDS011;26582;47.524;19.012;2024-01-27T10:53:33;4.80;;;1.55;;
40863;SDS011;26582;47.524;19.012;2024-01-27T10:56:03;3.50;;;1.58;;
40863;SDS011;26582;47.524;19.012;2024-01-27T10:58:34;6.35;;;1.67;;
40863;SDS011;26582;47.524;19.012;2024-01-27T11:01:08;3.47;;;1.27;;
40863;SDS011;26582;47.524;19.012;2024-01-27T11:03:38;5.60;;;1.75;;
40863;SDS011;26582;47.524;19.012;2024-01-27T11:06:05;4.53;;;1.63;;
40863;SDS011;26582;47.524;19.012;2024-01-27T11:08:32;3.63;;;1.60;;
40863;SDS011;26582;47.524;19.012;2024-01-27T11:11:00;3.17;;;1.80;;
40863;SDS011;26582;47.524;19.012;2024-01-27T11:13:28;7.60;;;1.88;;
40863;SDS011;26582;47.524;19.012;2024-01-27T11:15:56;2.97;;;1.50;;
40863;SDS011;26582;47.524;19.012;2024-01-27T11:18:25;4.00;;;1.52;;
40863;SDS011;26582;47.524;19.012;2024-01-27T11:20:53;2.47;;;1.50;;
40863;SDS011;26582;47.524;19.012;2024-01-27T11:23:20;5.82;;;1.80;;
40863;SDS011;26582;47.524;19.012;2024-01-27T11:25:47;3.65;;;1.60;;
40863;SDS011;26582;47.524;19.012;2024-01-27T11:28:14;4.80;;;1.65;;
40863;SDS011;26582;47.524;19.012;2024-01-27T11:30:44;5.03;;;1.65;;
40863;SDS011;26582;47.524;19.012;2024-01-27T11:33:12;3.40;;;1.45;;
40863;SDS011;26582;47.524;19.012;2024-01-27T11:35:41;5.85;;;1.83;;
40863;SDS011;26582;47.524;19.012;2024-01-27T11:38:08;3.63;;;1.67;;
40863;SDS011;26582;47.524;19.012;2024-01-27T11:40:44;6.75;;;1.77;;
40863;SDS011;26582;47.524;19.012;2024-01-27T11:43:11;3.65;;;1.65;;
40863;SDS011;26582;47.524;19.012;2024-01-27T11:45:39;2.90;;;1.55;;
40863;SDS011;26582;47.524;19.012;2024-01-27T11:48:06;5.03;;;1.40;;
40863;SDS011;26582;47.524;19.012;2024-01-27T11:50:32;2.65;;;1.50;;
40863;SDS011;26582;47.524;19.012;2024-01-27T11:53:00;3.38;;;1.30;;
40863;SDS011;26582;47.524;19.012;2024-01-27T11:55:27;3.78;;;1.58;;
40863;SDS011;26582;47.524;19.012;2024-01-27T11:57:54;4.72;;;1.52;;
40863;SDS011;26582;47.524;19.012;2024-01-27T12:00:21;4.57;;;1.40;;
40863;SDS011;26582;47.524;19.012;2024-01-27T12:02:50;5.45;;;1.60;;
40863;SDS011;26582;47.524;19.012;2024-01-27T12:05:17;6.18;;;1.83;;
40863;SDS011;26582;47.524;19.012;2024-01-27T12:07:43;4.63;;;1.75;;
40863;SDS011;26582;47.524;19.012;2024-01-27T12:10:11;3.95;;;1.45;;
40863;SDS011;26582;47.524;19.012;2024-01-27T12:12:38;3.10;;;1.60;;
40863;SDS011;26582;47.524;19.012;2024-01-27T12:15:05;3.53;;;1.60;;
40863;SDS011;26582;47.524;19.012;2024-01-27T12:17:32;3.25;;;1.60;;
40863;SDS011;26582;47.524;19.012;2024-01-27T12:19:59;8.40;;;1.58;;
40863;SDS011;26582;47.524;19.012;2024-01-27T12:22:27;6.90;;;1.80;;
40863;SDS011;26582;47.524;19.012;2024-01-27T12:24:54;5.35;;;1.40;;
40863;SDS011;26582;47.524;19.012;2024-01-27T12:27:24;5.80;;;1.30;;
40863;SDS011;26582;47.524;19.012;2024-01-27T12:29:51;3.55;;;1.60;;
40863;SDS011;26582;47.524;19.012;2024-01-27T12:32:17;5.00;;;1.80;;
40863;SDS011;26582;47.524;19.012;2024-01-27T12:34:44;6.60;;;1.92;;
40863;SDS011;26582;47.524;19.012;2024-01-27T12:37:12;6.13;;;2.20;;
40863;SDS011;26582;47.524;19.012;2024-01-27T12:39:40;5.43;;;1.67;;
40863;SDS011;26582;47.524;19.012;2024-01-27T12:42:08;3.75;;;1.52;;
40863;SDS011;26582;47.524;19.012;2024-01-27T12:44:36;5.53;;;1.90;;
40863;SDS011;26582;47.524;19.012;2024-01-27T12:47:03;3.35;;;1.77;;
40863;SDS011;26582;47.524;19.012;2024-01-27T12:49:30;7.00;;;1.60;;
40863;SDS011;26582;47.524;19.012;2024-01-27T12:51:57;3.92;;;2.05;;
40863;SDS011;26582;47.524;19.012;2024-01-27T12:54:24;3.15;;;1.80;;
40863;SDS011;26582;47.524;19.012;2024-01-27T12:56:50;4.78;;;1.95;;
40863;SDS011;26582;47.524;19.012;2024-01-27T12:59:17;4.07;;;1.65;;
40863;SDS011;26582;47.524;19.012;2024-01-27T13:01:46;5.72;;;1.77;;
40863;SDS011;26582;47.524;19.012;2024-01-27T13:04:12;6.35;;;2.22;;
40863;SDS011;26582;47.524;19.012;2024-01-27T13:06:39;4.10;;;2.03;;
40863;SDS011;26582;47.524;19.012;2024-01-27T13:09:07;5.15;;;2.05;;
40863;SDS011;26582;47.524;19.012;2024-01-27T13:11:36;6.55;;;1.92;;
40863;SDS011;26582;47.524;19.012;2024-01-27T13:14:03;6.10;;;1.88;;
40863;SDS011;26582;47.524;19.012;2024-01-27T13:16:30;3.17;;;1.67;;
40863;SDS011;26582;47.524;19.012;2024-01-27T13:18:59;5.15;;;1.60;;
40863;SDS011;26582;47.524;19.012;2024-01-27T13:21:25;4.40;;;1.77;;
40863;SDS011;26582;47.524;19.012;2024-01-27T13:23:52;4.55;;;1.77;;
40863;SDS011;26582;47.524;19.012;2024-01-27T13:26:19;7.90;;;1.67;;
40863;SDS011;26582;47.524;19.012;2024-01-27T13:28:46;4.07;;;1.63;;
40863;SDS011;26582;47.524;19.012;2024-01-27T13:31:13;3.55;;;1.90;;
40863;SDS011;26582;47.524;19.012;2024-01-27T13:33:40;7.88;;;2.15;;
40863;SDS011;26582;47.524;19.012;2024-01-27T13:36:08;7.38;;;2.10;;
40863;SDS011;26582;47.524;19.012;2024-01-27T13:38:35;4.30;;;1.50;;
40863;SDS011;26582;47.524;19.012;2024-01-27T13:41:01;5.57;;;1.83;;
40863;SDS011;26582;47.524;19.012;2024-01-27T13:43:27;6.50;;;1.90;;
40863;SDS011;26582;47.524;19.012;2024-01-27T13:45:54;3.55;;;1.67;;
40863;SDS011;26582;47.524;19.012;2024-01-27T13:48:21;6.80;;;2.08;;
40863;SDS011;26582;47.524;19.012;2024-01-27T13:50:48;8.05;;;2.10;;
40863;SDS011;26582;47.524;19.012;2024-01-27T13:53:16;2.72;;;1.58;;
40863;SDS011;26582;47.524;19.012;2024-01-27T13:55:42;2.50;;;1.65;;
40863;SDS011;26582;47.524;19.012;2024-01-27T13:58:10;4.38;;;1.92;;
40863;SDS011;26582;47.524;19.012;2024-01-27T14:00:37;6.93;;;1.95;;
40863;SDS011;26582;47.524;19.012;2024-01-27T14:03:04;6.10;;;1.73;;
40863;SDS011;26582;47.524;19.012;2024-01-27T14:05:30;4.88;;;2.08;;
40863;SDS011;26582;47.524;19.012;2024-01-27T14:07:57;6.57;;;1.90;;
40863;SDS011;26582;47.524;19.012;2024-01-27T14:10:25;7.57;;;2.08;;
40863;SDS011;26582;47.524;19.012;2024-01-27T14:12:52;4.53;;;1.90;;
40863;SDS011;26582;47.524;19.012;2024-01-27T14:15:19;3.95;;;1.88;;
40863;SDS011;26582;47.524;19.012;2024-01-27T14:17:46;4.88;;;1.80;;
40863;SDS011;26582;47.524;19.012;2024-01-27T14:20:12;4.80;;;1.95;;
40863;SDS011;26582;47.524;19.012;2024-01-27T14:22:39;7.93;;;2.10;;
40863;SDS011;26582;47.524;19.012;2024-01-27T14:25:06;5.82;;;1.70;;
40863;SDS011;26582;47.524;19.012;2024-01-27T14:27:36;4.53;;;1.63;;
40863;SDS011;26582;47.524;19.012;2024-01-27T14:30:03;5.85;;;1.70;;
40863;SDS011;26582;47.524;19.012;2024-01-27T14:32:30;2.97;;;1.50;;
40863;SDS011;26582;47.524;19.012;2024-01-27T14:34:57;4.18;;;1.77;;